sensor_id;sensor_type;location;lat;lon;timestamp;temperature;humidity
18317;DHT22;9284;52.298;21.164;2024-03-06T00:00:49;6.50;99.90
18317;DHT22;9284;52.298;21.164;2024-03-06T00:03:18;6.50;99.90
18317;DHT22;9284;52.298;21.164;2024-03-06T00:05:47;6.50;99.90
18317;DHT22;9284;52.298;21.164;2024-03-06T00:08:15;6.50;99.90
18317;DHT22;9284;52.298;21.164;2024-03-06T00:10:45;6.50;99.90
18317;DHT22;9284;52.298;21.164;2024-03-06T00:13:14;6.50;99.90
18317;DHT22;9284;52.298;21.164;2024-03-06T00:15:42;6.50;99.90
18317;DHT22;9284;52.298;21.164;2024-03-06T00:18:11;6.50;99.90
18317;DHT22;9284;52.298;21.164;2024-03-06T00:20:40;6.50;99.90
18317;DHT22;9284;52.298;21.164;2024-03-06T00:23:09;6.50;99.90
18317;DHT22;9284;52.298;21.164;2024-03-06T00:25:37;6.50;99.90
18317;DHT22;9284;52.298;21.164;2024-03-06T00:28:07;6.50;99.90
18317;DHT22;9284;52.298;21.164;2024-03-06T00:30:36;6.50;99.90
18317;DHT22;9284;52.298;21.164;2024-03-06T00:33:04;6.50;99.90
18317;DHT22;9284;52.298;21.164;2024-03-06T00:35:33;6.50;99.90
18317;DHT22;9284;52.298;21.164;2024-03-06T00:38:01;6.50;99.90
18317;DHT22;9284;52.298;21.164;2024-03-06T00:40:30;6.50;99.90
18317;DHT22;9284;52.298;21.164;2024-03-06T00:42:59;6.50;99.90
18317;DHT22;9284;52.298;21.164;2024-03-06T00:45:28;6.50;99.90
18317;DHT22;9284;52.298;21.164;2024-03-06T00:47:57;6.50;99.90
18317;DHT22;9284;52.298;21.164;2024-03-06T00:50:25;6.60;99.90
18317;DHT22;9284;52.298;21.164;2024-03-06T00:52:53;6.50;99.90
18317;DHT22;9284;52.298;21.164;2024-03-06T00:55:22;6.60;99.90
18317;DHT22;9284;52.298;21.164;2024-03-06T00:57:50;6.60;99.90
18317;DHT22;9284;52.298;21.164;2024-03-06T01:00:19;6.60;99.90
18317;DHT22;9284;52.298;21.164;2024-03-06T01:02:50;6.60;99.90
18317;DHT22;9284;52.298;21.164;2024-03-06T01:05:18;6.60;99.90
18317;DHT22;9284;52.298;21.164;2024-03-06T01:07:47;6.60;99.90
18317;DHT22;9284;52.298;21.164;2024-03-06T01:10:15;6.50;99.90
18317;DHT22;9284;52.298;21.164;2024-03-06T01:12:44;6.60;99.90
18317;DHT22;9284;52.298;21.164;2024-03-06T01:15:12;6.60;99.90
18317;DHT22;9284;52.298;21.164;2024-03-06T01:17:41;6.60;99.90
18317;DHT22;9284;52.298;21.164;2024-03-06T01:20:11;6.60;99.90
18317;DHT22;9284;52.298;21.164;2024-03-06T01:22:40;6.60;99.90
18317;DHT22;9284;52.298;21.164;2024-03-06T01:25:08;6.70;99.90
18317;DHT22;9284;52.298;21.164;2024-03-06T01:27:38;6.70;99.90
18317;DHT22;9284;52.298;21.164;2024-03-06T01:30:07;6.70;99.90
18317;DHT22;9284;52.298;21.164;2024-03-06T01:32:36;6.70;99.90
18317;DHT22;9284;52.298;21.164;2024-03-06T01:35:06;6.70;99.90
18317;DHT22;9284;52.298;21.164;2024-03-06T01:37:36;6.70;99.90
18317;DHT22;9284;52.298;21.164;2024-03-06T01:40:05;6.70;99.90
18317;DHT22;9284;52.298;21.164;2024-03-06T01:42:34;6.70;99.90
18317;DHT22;9284;52.298;21.164;2024-03-06T01:45:03;6.70;99.90
18317;DHT22;9284;52.298;21.164;2024-03-06T01:47:31;6.60;99.90
18317;DHT22;9284;52.298;21.164;2024-03-06T01:50:01;6.70;99.90
18317;DHT22;9284;52.298;21.164;2024-03-06T01:52:30;6.70;99.90
18317;DHT22;9284;52.298;21.164;2024-03-06T01:55:00;6.70;99.90
18317;DHT22;9284;52.298;21.164;2024-03-06T01:57:29;6.70;99.90
18317;DHT22;9284;52.298;21.164;2024-03-06T01:59:58;6.60;99.90
18317;DHT22;9284;52.298;21.164;2024-03-06T02:02:26;6.60;99.90
18317;DHT22;9284;52.298;21.164;2024-03-06T02:04:55;6.60;99.90
18317;DHT22;9284;52.298;21.164;2024-03-06T02:07:24;6.60;99.90
18317;DHT22;9284;52.298;21.164;2024-03-06T02:09:53;6.60;99.90
18317;DHT22;9284;52.298;21.164;2024-03-06T02:12:22;6.60;99.90
18317;DHT22;9284;52.298;21.164;2024-03-06T02:14:51;6.60;99.90
18317;DHT22;9284;52.298;21.164;2024-03-06T02:17:19;6.60;99.90
18317;DHT22;9284;52.298;21.164;2024-03-06T02:19:49;6.60;99.90
18317;DHT22;9284;52.298;21.164;2024-03-06T02:22:18;6.50;99.90
18317;DHT22;9284;52.298;21.164;2024-03-06T02:24:48;6.50;99.90
18317;DHT22;9284;52.298;21.164;2024-03-06T02:27:17;6.50;99.90
18317;DHT22;9284;52.298;21.164;2024-03-06T02:29:45;6.50;99.90
18317;DHT22;9284;52.298;21.164;2024-03-06T02:32:14;6.50;99.90
18317;DHT22;9284;52.298;21.164;2024-03-06T02:34:44;6.50;99.90
18317;DHT22;9284;52.298;21.164;2024-03-06T02:37:13;6.50;99.90
18317;DHT22;9284;52.298;21.164;2024-03-06T02:39:42;6.40;99.90
18317;DHT22;9284;52.298;21.164;2024-03-06T02:42:11;6.40;99.90
18317;DHT22;9284;52.298;21.164;2024-03-06T02:44:39;6.40;99.90
18317;DHT22;9284;52.298;21.164;2024-03-06T02:47:08;6.40;99.90
18317;DHT22;9284;52.298;21.164;2024-03-06T02:49:37;6.40;99.90
18317;DHT22;9284;52.298;21.164;2024-03-06T02:52:05;6.40;99.90
18317;DHT22;9284;52.298;21.164;2024-03-06T02:54:33;6.40;99.90
18317;DHT22;9284;52.298;21.164;2024-03-06T02:57:03;6.40;99.90
18317;DHT22;9284;52.298;21.164;2024-03-06T02:59:32;6.40;99.90
18317;DHT22;9284;52.298;21.164;2024-03-06T03:02:00;6.40;99.90
18317;DHT22;9284;52.298;21.164;2024-03-06T03:04:30;6.40;99.90
18317;DHT22;9284;52.298;21.164;2024-03-06T03:06:59;6.30;99.90
18317;DHT22;9284;52.298;21.164;2024-03-06T03:09:27;6.30;99.90
18317;DHT22;9284;52.298;21.164;2024-03-06T03:11:56;6.30;99.90
18317;DHT22;9284;52.298;21.164;2024-03-06T03:14:27;6.30;99.90
18317;DHT22;9284;52.298;21.164;2024-03-06T03:16:56;6.30;99.90
18317;DHT22;9284;52.298;21.164;2024-03-06T03:19:24;6.30;99.90
18317;DHT22;9284;52.298;21.164;2024-03-06T03:21:52;6.40;99.90
18317;DHT22;9284;52.298;21.164;2024-03-06T03:24:21;6.30;99.90
18317;DHT22;9284;52.298;21.164;2024-03-06T03:26:49;6.30;99.90
18317;DHT22;9284;52.298;21.164;2024-03-06T03:29:18;6.30;99.90
18317;DHT22;9284;52.298;21.164;2024-03-06T03:31:49;6.30;99.90
18317;DHT22;9284;52.298;21.164;2024-03-06T03:34:18;6.30;99.90
18317;DHT22;9284;52.298;21.164;2024-03-06T03:36:48;6.30;99.90
18317;DHT22;9284;52.298;21.164;2024-03-06T03:39:16;6.20;99.90
18317;DHT22;9284;52.298;21.164;2024-03-06T03:41:46;6.20;99.90
18317;DHT22;9284;52.298;21.164;2024-03-06T03:44:16;6.20;99.90
18317;DHT22;9284;52.298;21.164;2024-03-06T03:46:46;6.20;99.90
18317;DHT22;9284;52.298;21.164;2024-03-06T03:49:16;6.20;99.90
18317;DHT22;9284;52.298;21.164;2024-03-06T03:51:45;6.20;99.90
18317;DHT22;9284;52.298;21.164;2024-03-06T03:54:15;6.20;99.90
18317;DHT22;9284;52.298;21.164;2024-03-06T03:56:44;6.10;99.90
18317;DHT22;9284;52.298;21.164;2024-03-06T03:59:12;6.10;99.90
18317;DHT22;9284;52.298;21.164;2024-03-06T04:01:40;6.10;99.90
18317;DHT22;9284;52.298;21.164;2024-03-06T04:04:09;6.10;99.90
18317;DHT22;9284;52.298;21.164;2024-03-06T04:06:39;6.10;99.90
18317;DHT22;9284;52.298;21.164;2024-03-06T04:09:07;6.10;99.90
18317;DHT22;9284;52.298;21.164;2024-03-06T04:11:37;6.00;99.90
18317;DHT22;9284;52.298;21.164;2024-03-06T04:14:06;6.00;99.90
18317;DHT22;9284;52.298;21.164;2024-03-06T04:16:34;6.00;99.90
18317;DHT22;9284;52.298;21.164;2024-03-06T04:19:03;6.00;99.90
18317;DHT22;9284;52.298;21.164;2024-03-06T04:21:31;6.00;99.90
18317;DHT22;9284;52.298;21.164;2024-03-06T04:24:01;5.90;99.90
18317;DHT22;9284;52.298;21.164;2024-03-06T04:26:30;5.90;99.90
18317;DHT22;9284;52.298;21.164;2024-03-06T04:28:58;5.90;99.90
18317;DHT22;9284;52.298;21.164;2024-03-06T04:31:26;5.80;99.90
18317;DHT22;9284;52.298;21.164;2024-03-06T04:33:55;5.80;99.90
18317;DHT22;9284;52.298;21.164;2024-03-06T04:36:23;5.80;99.90
18317;DHT22;9284;52.298;21.164;2024-03-06T04:38:51;5.80;99.90
18317;DHT22;9284;52.298;21.164;2024-03-06T04:41:21;5.80;99.90
18317;DHT22;9284;52.298;21.164;2024-03-06T04:43:50;5.70;99.90
18317;DHT22;9284;52.298;21.164;2024-03-06T04:46:19;5.70;99.90
18317;DHT22;9284;52.298;21.164;2024-03-06T04:48:48;5.70;99.90
18317;DHT22;9284;52.298;21.164;2024-03-06T04:51:16;5.80;99.90
18317;DHT22;9284;52.298;21.164;2024-03-06T04:53:46;5.70;99.90
18317;DHT22;9284;52.298;21.164;2024-03-06T04:56:15;5.70;99.90
18317;DHT22;9284;52.298;21.164;2024-03-06T04:58:47;5.70;99.90
18317;DHT22;9284;52.298;21.164;2024-03-06T05:01:16;5.70;99.90
18317;DHT22;9284;52.298;21.164;2024-03-06T05:03:44;5.70;99.90
18317;DHT22;9284;52.298;21.164;2024-03-06T05:06:30;5.70;99.90
18317;DHT22;9284;52.298;21.164;2024-03-06T05:09:16;5.70;99.90
18317;DHT22;9284;52.298;21.164;2024-03-06T05:12:02;5.70;99.90
18317;DHT22;9284;52.298;21.164;2024-03-06T05:14:49;5.70;99.90
18317;DHT22;9284;52.298;21.164;2024-03-06T05:17:35;5.70;99.90
18317;DHT22;9284;52.298;21.164;2024-03-06T05:20:20;5.70;99.90
18317;DHT22;9284;52.298;21.164;2024-03-06T05:23:06;5.70;99.90
18317;DHT22;9284;52.298;21.164;2024-03-06T05:25:52;5.60;99.90
18317;DHT22;9284;52.298;21.164;2024-03-06T05:28:38;5.70;99.90
18317;DHT22;9284;52.298;21.164;2024-03-06T05:31:25;5.70;99.90
18317;DHT22;9284;52.298;21.164;2024-03-06T05:34:11;5.60;99.90
18317;DHT22;9284;52.298;21.164;2024-03-06T05:36:56;5.60;99.90
18317;DHT22;9284;52.298;21.164;2024-03-06T05:39:42;5.60;99.90
18317;DHT22;9284;52.298;21.164;2024-03-06T05:42:28;5.60;99.90
18317;DHT22;9284;52.298;21.164;2024-03-06T05:45:15;5.60;99.90
18317;DHT22;9284;52.298;21.164;2024-03-06T05:48:02;5.60;99.90
18317;DHT22;9284;52.298;21.164;2024-03-06T05:50:48;5.50;99.90
18317;DHT22;9284;52.298;21.164;2024-03-06T05:53:36;5.50;99.90
18317;DHT22;9284;52.298;21.164;2024-03-06T05:56:22;5.50;91.60
18317;DHT22;9284;52.298;21.164;2024-03-06T05:59:08;5.40;52.70
18317;DHT22;9284;52.298;21.164;2024-03-06T06:01:37;5.50;29.40
18317;DHT22;9284;52.298;21.164;2024-03-06T06:04:07;5.40;7.50
18317;DHT22;9284;52.298;21.164;2024-03-06T06:06:36;5.40;1.60
18317;DHT22;9284;52.298;21.164;2024-03-06T06:09:04;5.40;1.00
18317;DHT22;9284;52.298;21.164;2024-03-06T06:11:33;5.40;1.00
18317;DHT22;9284;52.298;21.164;2024-03-06T06:14:01;5.30;1.00
18317;DHT22;9284;52.298;21.164;2024-03-06T06:16:35;5.30;1.00
18317;DHT22;9284;52.298;21.164;2024-03-06T06:19:03;5.40;1.00
18317;DHT22;9284;52.298;21.164;2024-03-06T06:21:34;5.40;1.00
18317;DHT22;9284;52.298;21.164;2024-03-06T06:24:03;5.40;1.00
18317;DHT22;9284;52.298;21.164;2024-03-06T06:26:32;5.40;1.00
18317;DHT22;9284;52.298;21.164;2024-03-06T06:29:01;5.40;1.00
18317;DHT22;9284;52.298;21.164;2024-03-06T06:31:30;5.40;1.00
18317;DHT22;9284;52.298;21.164;2024-03-06T06:33:58;5.30;1.00
18317;DHT22;9284;52.298;21.164;2024-03-06T06:36:26;5.30;1.00
18317;DHT22;9284;52.298;21.164;2024-03-06T06:38:56;5.30;1.00
18317;DHT22;9284;52.298;21.164;2024-03-06T06:41:28;5.30;1.00
18317;DHT22;9284;52.298;21.164;2024-03-06T06:43:57;5.30;1.00
18317;DHT22;9284;52.298;21.164;2024-03-06T06:46:25;5.30;1.00
18317;DHT22;9284;52.298;21.164;2024-03-06T06:48:53;5.30;1.00
18317;DHT22;9284;52.298;21.164;2024-03-06T06:51:22;5.30;1.00
18317;DHT22;9284;52.298;21.164;2024-03-06T06:53:51;5.30;1.00
18317;DHT22;9284;52.298;21.164;2024-03-06T06:56:22;5.30;1.00
18317;DHT22;9284;52.298;21.164;2024-03-06T06:58:51;5.40;1.00
18317;DHT22;9284;52.298;21.164;2024-03-06T07:01:19;5.40;1.00
18317;DHT22;9284;52.298;21.164;2024-03-06T07:03:48;5.30;99.90
18317;DHT22;9284;52.298;21.164;2024-03-06T07:06:17;5.40;99.90
18317;DHT22;9284;52.298;21.164;2024-03-06T07:08:45;5.30;1.00
18317;DHT22;9284;52.298;21.164;2024-03-06T07:11:14;5.30;1.00
18317;DHT22;9284;52.298;21.164;2024-03-06T07:13:49;5.40;1.00
18317;DHT22;9284;52.298;21.164;2024-03-06T07:16:18;5.30;1.00
18317;DHT22;9284;52.298;21.164;2024-03-06T07:18:47;5.30;1.00
18317;DHT22;9284;52.298;21.164;2024-03-06T07:21:15;5.40;1.00
18317;DHT22;9284;52.298;21.164;2024-03-06T07:23:45;5.40;1.00
18317;DHT22;9284;52.298;21.164;2024-03-06T07:26:13;5.40;1.00
18317;DHT22;9284;52.298;21.164;2024-03-06T07:28:42;5.30;1.00
18317;DHT22;9284;52.298;21.164;2024-03-06T07:31:12;5.40;1.00
18317;DHT22;9284;52.298;21.164;2024-03-06T07:33:40;5.40;1.00
18317;DHT22;9284;52.298;21.164;2024-03-06T07:36:09;5.40;1.00
18317;DHT22;9284;52.298;21.164;2024-03-06T07:38:38;5.50;1.00
18317;DHT22;9284;52.298;21.164;2024-03-06T07:41:07;5.40;1.00
18317;DHT22;9284;52.298;21.164;2024-03-06T07:43:35;5.40;1.00
18317;DHT22;9284;52.298;21.164;2024-03-06T07:46:05;5.30;99.90
18317;DHT22;9284;52.298;21.164;2024-03-06T07:48:42;5.30;99.90
18317;DHT22;9284;52.298;21.164;2024-03-06T07:51:11;5.30;95.00
18317;DHT22;9284;52.298;21.164;2024-03-06T07:53:39;5.20;1.00
18317;DHT22;9284;52.298;21.164;2024-03-06T07:56:10;5.30;67.60
18317;DHT22;9284;52.298;21.164;2024-03-06T07:58:40;5.20;1.00
18317;DHT22;9284;52.298;21.164;2024-03-06T08:01:08;5.20;1.00
18317;DHT22;9284;52.298;21.164;2024-03-06T08:03:40;5.30;99.90
18317;DHT22;9284;52.298;21.164;2024-03-06T08:06:10;5.40;1.00
18317;DHT22;9284;52.298;21.164;2024-03-06T08:08:40;5.40;1.00
18317;DHT22;9284;52.298;21.164;2024-03-06T08:11:09;5.40;99.90
18317;DHT22;9284;52.298;21.164;2024-03-06T08:13:38;5.50;1.00
18317;DHT22;9284;52.298;21.164;2024-03-06T08:16:07;5.50;99.90
18317;DHT22;9284;52.298;21.164;2024-03-06T08:18:36;5.60;1.00
18317;DHT22;9284;52.298;21.164;2024-03-06T08:21:06;5.50;99.90
18317;DHT22;9284;52.298;21.164;2024-03-06T08:23:35;5.60;99.90
18317;DHT22;9284;52.298;21.164;2024-03-06T08:26:03;5.70;25.50
18317;DHT22;9284;52.298;21.164;2024-03-06T08:28:32;5.70;99.90
18317;DHT22;9284;52.298;21.164;2024-03-06T08:31:00;5.80;1.00
18317;DHT22;9284;52.298;21.164;2024-03-06T08:33:29;5.70;1.00
18317;DHT22;9284;52.298;21.164;2024-03-06T08:35:57;5.70;99.90
18317;DHT22;9284;52.298;21.164;2024-03-06T08:38:27;5.70;1.00
18317;DHT22;9284;52.298;21.164;2024-03-06T08:40:55;5.70;1.00
18317;DHT22;9284;52.298;21.164;2024-03-06T08:43:24;5.70;99.90
18317;DHT22;9284;52.298;21.164;2024-03-06T08:45:53;5.70;99.90
18317;DHT22;9284;52.298;21.164;2024-03-06T08:48:21;5.80;99.90
18317;DHT22;9284;52.298;21.164;2024-03-06T08:50:51;5.70;1.00
18317;DHT22;9284;52.298;21.164;2024-03-06T08:53:20;5.70;1.00
18317;DHT22;9284;52.298;21.164;2024-03-06T08:55:50;5.80;1.00
18317;DHT22;9284;52.298;21.164;2024-03-06T08:58:19;5.80;99.90
18317;DHT22;9284;52.298;21.164;2024-03-06T09:00:48;5.80;1.00
18317;DHT22;9284;52.298;21.164;2024-03-06T09:03:16;5.90;99.90
18317;DHT22;9284;52.298;21.164;2024-03-06T09:05:45;5.90;1.00
18317;DHT22;9284;52.298;21.164;2024-03-06T09:08:13;5.90;99.90
18317;DHT22;9284;52.298;21.164;2024-03-06T09:10:41;6.00;24.30
18317;DHT22;9284;52.298;21.164;2024-03-06T09:13:11;6.00;1.00
18317;DHT22;9284;52.298;21.164;2024-03-06T09:15:40;6.00;99.90
18317;DHT22;9284;52.298;21.164;2024-03-06T09:18:08;6.10;1.00
18317;DHT22;9284;52.298;21.164;2024-03-06T09:20:36;6.10;99.90
18317;DHT22;9284;52.298;21.164;2024-03-06T09:23:05;6.20;1.00
18317;DHT22;9284;52.298;21.164;2024-03-06T09:25:33;6.30;1.00
18317;DHT22;9284;52.298;21.164;2024-03-06T09:28:02;6.20;1.00
18317;DHT22;9284;52.298;21.164;2024-03-06T09:30:33;6.20;1.00
18317;DHT22;9284;52.298;21.164;2024-03-06T09:33:02;6.20;1.00
18317;DHT22;9284;52.298;21.164;2024-03-06T09:35:30;6.10;99.90
18317;DHT22;9284;52.298;21.164;2024-03-06T09:38:00;6.00;99.90
18317;DHT22;9284;52.298;21.164;2024-03-06T09:40:29;6.00;99.90
18317;DHT22;9284;52.298;21.164;2024-03-06T09:42:58;5.90;99.90
18317;DHT22;9284;52.298;21.164;2024-03-06T09:45:26;5.90;2.10
18317;DHT22;9284;52.298;21.164;2024-03-06T09:47:56;5.90;15.60
18317;DHT22;9284;52.298;21.164;2024-03-06T09:50:25;5.90;1.00
18317;DHT22;9284;52.298;21.164;2024-03-06T09:52:55;5.90;1.00
18317;DHT22;9284;52.298;21.164;2024-03-06T09:55:25;5.90;1.00
18317;DHT22;9284;52.298;21.164;2024-03-06T09:57:55;5.90;1.00
18317;DHT22;9284;52.298;21.164;2024-03-06T10:00:23;5.90;1.00
18317;DHT22;9284;52.298;21.164;2024-03-06T10:02:57;6.00;1.00
18317;DHT22;9284;52.298;21.164;2024-03-06T10:05:27;6.00;1.00
18317;DHT22;9284;52.298;21.164;2024-03-06T10:07:57;6.10;99.90
18317;DHT22;9284;52.298;21.164;2024-03-06T10:10:27;6.20;99.90
18317;DHT22;9284;52.298;21.164;2024-03-06T10:12:55;6.10;99.90
18317;DHT22;9284;52.298;21.164;2024-03-06T10:15:24;6.10;99.90
18317;DHT22;9284;52.298;21.164;2024-03-06T10:18:11;6.20;99.90
18317;DHT22;9284;52.298;21.164;2024-03-06T10:20:41;6.30;99.90
18317;DHT22;9284;52.298;21.164;2024-03-06T10:23:12;6.30;99.90
18317;DHT22;9284;52.298;21.164;2024-03-06T10:25:43;6.30;1.00
18317;DHT22;9284;52.298;21.164;2024-03-06T10:28:12;6.30;1.00
18317;DHT22;9284;52.298;21.164;2024-03-06T10:30:41;6.30;1.00
18317;DHT22;9284;52.298;21.164;2024-03-06T10:33:15;6.40;1.00
18317;DHT22;9284;52.298;21.164;2024-03-06T10:35:47;6.40;1.00
18317;DHT22;9284;52.298;21.164;2024-03-06T10:38:19;6.40;1.00
18317;DHT22;9284;52.298;21.164;2024-03-06T10:40:50;6.20;1.00
18317;DHT22;9284;52.298;21.164;2024-03-06T10:43:21;6.30;1.00
18317;DHT22;9284;52.298;21.164;2024-03-06T10:45:51;6.30;1.00
18317;DHT22;9284;52.298;21.164;2024-03-06T10:48:28;6.30;1.00
18317;DHT22;9284;52.298;21.164;2024-03-06T10:50:57;6.20;1.00
18317;DHT22;9284;52.298;21.164;2024-03-06T10:53:30;6.20;99.90
18317;DHT22;9284;52.298;21.164;2024-03-06T10:56:00;6.30;1.00
18317;DHT22;9284;52.298;21.164;2024-03-06T10:58:30;6.50;1.00
18317;DHT22;9284;52.298;21.164;2024-03-06T11:00:59;6.60;99.90
18317;DHT22;9284;52.298;21.164;2024-03-06T11:03:30;6.60;99.90
18317;DHT22;9284;52.298;21.164;2024-03-06T11:05:58;6.80;99.90
18317;DHT22;9284;52.298;21.164;2024-03-06T11:08:31;7.00;1.00
18317;DHT22;9284;52.298;21.164;2024-03-06T11:11:18;7.10;1.00
18317;DHT22;9284;52.298;21.164;2024-03-06T11:13:47;7.00;1.00
18317;DHT22;9284;52.298;21.164;2024-03-06T11:16:16;7.10;1.00
18317;DHT22;9284;52.298;21.164;2024-03-06T11:18:46;7.20;1.00
18317;DHT22;9284;52.298;21.164;2024-03-06T11:21:31;7.20;1.00
18317;DHT22;9284;52.298;21.164;2024-03-06T11:24:19;7.20;1.00
18317;DHT22;9284;52.298;21.164;2024-03-06T11:26:59;7.40;1.00
18317;DHT22;9284;52.298;21.164;2024-03-06T11:29:29;7.60;1.00
18317;DHT22;9284;52.298;21.164;2024-03-06T11:32:07;7.90;1.00
18317;DHT22;9284;52.298;21.164;2024-03-06T11:34:38;8.20;1.00
18317;DHT22;9284;52.298;21.164;2024-03-06T11:37:07;8.30;99.90
18317;DHT22;9284;52.298;21.164;2024-03-06T11:39:39;8.20;99.90
18317;DHT22;9284;52.298;21.164;2024-03-06T11:42:09;8.00;99.90
18317;DHT22;9284;52.298;21.164;2024-03-06T11:44:53;7.90;99.90
18317;DHT22;9284;52.298;21.164;2024-03-06T11:47:23;7.70;99.90
18317;DHT22;9284;52.298;21.164;2024-03-06T11:49:53;7.90;99.90
18317;DHT22;9284;52.298;21.164;2024-03-06T11:52:22;8.40;99.90
18317;DHT22;9284;52.298;21.164;2024-03-06T11:54:52;8.70;99.90
18317;DHT22;9284;52.298;21.164;2024-03-06T11:57:21;8.90;99.90
18317;DHT22;9284;52.298;21.164;2024-03-06T11:59:52;9.20;99.90
18317;DHT22;9284;52.298;21.164;2024-03-06T12:02:21;9.30;99.90
18317;DHT22;9284;52.298;21.164;2024-03-06T12:04:51;9.00;99.90
18317;DHT22;9284;52.298;21.164;2024-03-06T12:07:20;8.60;99.90
18317;DHT22;9284;52.298;21.164;2024-03-06T12:09:51;8.30;99.90
18317;DHT22;9284;52.298;21.164;2024-03-06T12:12:20;8.10;99.90
18317;DHT22;9284;52.298;21.164;2024-03-06T12:14:57;8.00;99.90
18317;DHT22;9284;52.298;21.164;2024-03-06T12:17:26;7.80;99.90
18317;DHT22;9284;52.298;21.164;2024-03-06T12:19:56;7.80;99.90
18317;DHT22;9284;52.298;21.164;2024-03-06T12:22:25;7.80;99.90
18317;DHT22;9284;52.298;21.164;2024-03-06T12:24:58;7.80;99.90
18317;DHT22;9284;52.298;21.164;2024-03-06T12:27:27;7.80;99.90
18317;DHT22;9284;52.298;21.164;2024-03-06T12:29:55;7.70;99.90
18317;DHT22;9284;52.298;21.164;2024-03-06T12:32:24;7.80;99.90
18317;DHT22;9284;52.298;21.164;2024-03-06T12:34:59;7.60;99.90
18317;DHT22;9284;52.298;21.164;2024-03-06T12:37:29;7.50;99.90
18317;DHT22;9284;52.298;21.164;2024-03-06T12:40:03;7.60;99.90
18317;DHT22;9284;52.298;21.164;2024-03-06T12:42:32;7.50;99.90
18317;DHT22;9284;52.298;21.164;2024-03-06T12:45:01;7.50;99.90
18317;DHT22;9284;52.298;21.164;2024-03-06T12:47:30;7.50;99.90
18317;DHT22;9284;52.298;21.164;2024-03-06T12:50:01;7.60;99.90
18317;DHT22;9284;52.298;21.164;2024-03-06T12:52:29;7.50;99.90
18317;DHT22;9284;52.298;21.164;2024-03-06T12:54:57;7.40;99.90
18317;DHT22;9284;52.298;21.164;2024-03-06T12:57:26;7.50;99.90
18317;DHT22;9284;52.298;21.164;2024-03-06T12:59:55;7.40;99.90
18317;DHT22;9284;52.298;21.164;2024-03-06T13:02:23;7.40;99.90
18317;DHT22;9284;52.298;21.164;2024-03-06T13:04:52;7.40;99.90
18317;DHT22;9284;52.298;21.164;2024-03-06T13:07:22;7.40;99.90
18317;DHT22;9284;52.298;21.164;2024-03-06T13:09:50;7.40;99.90
18317;DHT22;9284;52.298;21.164;2024-03-06T13:12:18;7.40;99.90
18317;DHT22;9284;52.298;21.164;2024-03-06T13:14:47;7.40;99.90
18317;DHT22;9284;52.298;21.164;2024-03-06T13:17:16;7.20;99.90
18317;DHT22;9284;52.298;21.164;2024-03-06T13:19:45;7.10;99.90
18317;DHT22;9284;52.298;21.164;2024-03-06T13:22:14;7.00;99.90
18317;DHT22;9284;52.298;21.164;2024-03-06T13:24:45;6.90;99.90
18317;DHT22;9284;52.298;21.164;2024-03-06T13:27:17;7.00;99.90
18317;DHT22;9284;52.298;21.164;2024-03-06T13:29:45;7.00;99.90
18317;DHT22;9284;52.298;21.164;2024-03-06T13:32:14;7.00;99.90
18317;DHT22;9284;52.298;21.164;2024-03-06T13:34:43;6.90;99.90
18317;DHT22;9284;52.298;21.164;2024-03-06T13:37:12;6.80;99.90
18317;DHT22;9284;52.298;21.164;2024-03-06T13:39:40;6.80;99.90
18317;DHT22;9284;52.298;21.164;2024-03-06T13:42:10;6.80;99.90
18317;DHT22;9284;52.298;21.164;2024-03-06T13:44:38;6.70;99.90
18317;DHT22;9284;52.298;21.164;2024-03-06T13:47:07;6.70;99.90
18317;DHT22;9284;52.298;21.164;2024-03-06T13:49:37;6.50;99.90
18317;DHT22;9284;52.298;21.164;2024-03-06T13:52:06;6.50;99.90
18317;DHT22;9284;52.298;21.164;2024-03-06T13:54:38;6.40;99.90
18317;DHT22;9284;52.298;21.164;2024-03-06T13:57:07;6.50;99.90
18317;DHT22;9284;52.298;21.164;2024-03-06T13:59:50;6.50;99.90
18317;DHT22;9284;52.298;21.164;2024-03-06T14:02:19;6.50;99.90
18317;DHT22;9284;52.298;21.164;2024-03-06T14:04:47;6.50;99.90
18317;DHT22;9284;52.298;21.164;2024-03-06T14:07:16;6.50;99.90
18317;DHT22;9284;52.298;21.164;2024-03-06T14:09:44;6.40;99.90
18317;DHT22;9284;52.298;21.164;2024-03-06T14:12:12;6.40;99.90
18317;DHT22;9284;52.298;21.164;2024-03-06T14:14:41;6.40;99.90
18317;DHT22;9284;52.298;21.164;2024-03-06T14:17:11;6.40;99.90
18317;DHT22;9284;52.298;21.164;2024-03-06T14:19:40;6.30;99.90
18317;DHT22;9284;52.298;21.164;2024-03-06T14:22:09;6.30;99.90
18317;DHT22;9284;52.298;21.164;2024-03-06T14:24:38;6.30;99.90
18317;DHT22;9284;52.298;21.164;2024-03-06T14:27:06;6.30;99.90
18317;DHT22;9284;52.298;21.164;2024-03-06T14:29:34;6.40;99.90
18317;DHT22;9284;52.298;21.164;2024-03-06T14:32:04;6.40;99.90
18317;DHT22;9284;52.298;21.164;2024-03-06T14:34:33;6.40;99.90
18317;DHT22;9284;52.298;21.164;2024-03-06T14:37:02;6.40;99.90
18317;DHT22;9284;52.298;21.164;2024-03-06T14:39:30;6.40;99.90
18317;DHT22;9284;52.298;21.164;2024-03-06T14:41:59;6.40;99.90
18317;DHT22;9284;52.298;21.164;2024-03-06T14:44:27;6.40;99.90
18317;DHT22;9284;52.298;21.164;2024-03-06T14:46:56;6.50;99.90
18317;DHT22;9284;52.298;21.164;2024-03-06T14:49:27;6.50;99.90
18317;DHT22;9284;52.298;21.164;2024-03-06T14:51:57;6.40;99.90
18317;DHT22;9284;52.298;21.164;2024-03-06T14:54:25;6.40;99.90
18317;DHT22;9284;52.298;21.164;2024-03-06T14:56:54;6.40;99.90
18317;DHT22;9284;52.298;21.164;2024-03-06T14:59:23;6.40;99.90
18317;DHT22;9284;52.298;21.164;2024-03-06T15:01:51;6.30;99.90
18317;DHT22;9284;52.298;21.164;2024-03-06T15:04:20;6.30;99.90
18317;DHT22;9284;52.298;21.164;2024-03-06T15:06:48;6.30;99.90
18317;DHT22;9284;52.298;21.164;2024-03-06T15:09:24;6.20;99.90
18317;DHT22;9284;52.298;21.164;2024-03-06T15:11:53;6.30;99.90
18317;DHT22;9284;52.298;21.164;2024-03-06T15:14:22;6.30;99.90
18317;DHT22;9284;52.298;21.164;2024-03-06T15:16:52;6.20;99.90
18317;DHT22;9284;52.298;21.164;2024-03-06T15:19:21;6.20;99.90
18317;DHT22;9284;52.298;21.164;2024-03-06T15:21:49;6.20;99.90
18317;DHT22;9284;52.298;21.164;2024-03-06T15:24:17;6.20;99.90
18317;DHT22;9284;52.298;21.164;2024-03-06T15:26:47;6.20;99.90
18317;DHT22;9284;52.298;21.164;2024-03-06T15:29:15;6.10;99.90
18317;DHT22;9284;52.298;21.164;2024-03-06T15:31:44;6.10;99.90
18317;DHT22;9284;52.298;21.164;2024-03-06T15:34:13;6.00;99.90
18317;DHT22;9284;52.298;21.164;2024-03-06T15:36:44;6.00;99.90
18317;DHT22;9284;52.298;21.164;2024-03-06T15:39:12;6.00;99.90
18317;DHT22;9284;52.298;21.164;2024-03-06T15:41:41;5.90;99.90
18317;DHT22;9284;52.298;21.164;2024-03-06T15:44:11;5.90;99.90
18317;DHT22;9284;52.298;21.164;2024-03-06T15:46:40;5.90;99.90
18317;DHT22;9284;52.298;21.164;2024-03-06T15:49:21;5.80;99.90
18317;DHT22;9284;52.298;21.164;2024-03-06T15:51:52;5.80;99.90
18317;DHT22;9284;52.298;21.164;2024-03-06T15:54:21;5.80;99.90
18317;DHT22;9284;52.298;21.164;2024-03-06T15:56:49;5.80;99.90
18317;DHT22;9284;52.298;21.164;2024-03-06T15:59:19;5.80;1.00
18317;DHT22;9284;52.298;21.164;2024-03-06T16:01:48;5.70;1.00
18317;DHT22;9284;52.298;21.164;2024-03-06T16:04:16;5.70;99.90
18317;DHT22;9284;52.298;21.164;2024-03-06T16:06:45;5.70;1.00
18317;DHT22;9284;52.298;21.164;2024-03-06T16:09:13;5.60;1.00